Time;durP1;ratioP1;P1;durP2;ratioP2;P2;SDS_P1;SDS_P2;PMS_P1;PMS_P2;Temp;Humidity;BMP_temperature;BMP_pressure;BME280_temperature;BME280_humidity;BME280_pressure;Samples;Min_cycle;Max_cycle;Signal;HPM_P1;HPM_P2
2022/01/06 00:00:33;;;;;;;;;19.25;15.50;;;;;;;;4977776;28;45432;-57
2022/01/06 00:02:58;;;;;;;;;15.50;14.50;;;;;;;;4977335;28;45734;-57
2022/01/06 00:05:24;;;;;;;;;15.00;15.00;;;;;;;;4978001;28;45355;-57
2022/01/06 00:07:49;;;;;;;;;21.00;16.75;;;;;;;;4976718;28;45389;-57
2022/01/06 00:10:15;;;;;;;;;14.00;11.50;;;;;;;;4977555;28;45362;-57
2022/01/06 00:12:50;;;;;;;;;15.75;14.00;;;;;;;;4977773;28;45330;-57
2022/01/06 00:18:11;;;;;;;;;15.00;14.00;;;;;;;;4977709;28;45242;-57
2022/01/06 00:25:57;;;;;;;;;16.75;14.25;;;;;;;;4977559;28;45403;-57
2022/01/06 00:28:23;;;;;;;;;17.75;15.75;;;;;;;;4977248;28;45281;-57
2022/01/06 00:30:48;;;;;;;;;14.00;14.00;;;;;;;;4977253;28;45307;-57
2022/01/06 00:33:15;;;;;;;;;12.50;12.25;;;;;;;;4993328;28;45420;-57
2022/01/06 00:35:40;;;;;;;;;14.25;14.25;;;;;;;;4977462;28;45230;-56
2022/01/06 00:38:07;;;;;;;;;15.75;13.75;;;;;;;;4977378;28;45283;-57
2022/01/06 00:40:32;;;;;;;;;14.50;13.25;;;;;;;;4977156;28;45624;-57
2022/01/06 00:42:58;;;;;;;;;14.25;13.00;;;;;;;;4992730;28;45332;-56
2022/01/06 00:45:23;;;;;;;;;14.00;12.50;;;;;;;;4977686;28;46412;-58
2022/01/06 00:47:48;;;;;;;;;11.75;11.50;;;;;;;;4977438;28;45443;-57
2022/01/06 00:50:13;;;;;;;;;14.75;14.50;;;;;;;;4977427;28;45543;-58
2022/01/06 00:52:38;;;;;;;;;15.25;13.25;;;;;;;;4976582;28;45428;-57
2022/01/06 00:55:04;;;;;;;;;14.75;14.75;;;;;;;;4977233;28;45404;-56
2022/01/06 00:57:29;;;;;;;;;24.50;15.00;;;;;;;;4957588;28;45368;-58
2022/01/06 00:59:54;;;;;;;;;13.50;13.50;;;;;;;;4969455;28;45383;-57
2022/01/06 01:02:20;;;;;;;;;14.25;14.25;;;;;;;;4975735;28;45512;-55
2022/01/06 01:04:45;;;;;;;;;13.75;13.75;;;;;;;;4981363;28;46380;-58
2022/01/06 01:07:10;;;;;;;;;16.50;12.25;;;;;;;;4976695;28;45404;-57
2022/01/06 01:09:35;;;;;;;;;13.75;13.25;;;;;;;;4975896;28;45510;-57
2022/01/06 01:12:03;;;;;;;;;14.75;13.75;;;;;;;;4976310;28;45414;-56
2022/01/06 01:14:32;;;;;;;;;15.25;14.25;;;;;;;;4985194;28;45381;-57
2022/01/06 01:16:59;;;;;;;;;14.25;14.00;;;;;;;;4976483;28;45294;-56
2022/01/06 01:19:25;;;;;;;;;14.75;13.75;;;;;;;;4976245;28;45491;-56
2022/01/06 01:21:50;;;;;;;;;15.00;14.00;;;;;;;;4983077;28;45415;-57
2022/01/06 01:24:16;;;;;;;;;15.00;14.75;;;;;;;;4990462;28;45297;-58
2022/01/06 01:26:42;;;;;;;;;16.50;15.00;;;;;;;;4978680;28;45206;-56
2022/01/06 01:29:09;;;;;;;;;16.00;16.00;;;;;;;;4984539;28;45323;-57
2022/01/06 01:31:42;;;;;;;;;15.50;14.00;;;;;;;;4976916;28;45297;-58
2022/01/06 01:34:09;;;;;;;;;18.75;18.75;;;;;;;;4976291;28;45375;-58
2022/01/06 01:36:34;;;;;;;;;15.00;15.00;;;;;;;;4975813;28;45428;-56
2022/01/06 01:39:00;;;;;;;;;15.25;13.00;;;;;;;;4977750;28;45833;-55
2022/01/06 01:41:25;;;;;;;;;17.25;13.50;;;;;;;;4989318;28;45532;-56
2022/01/06 01:43:53;;;;;;;;;18.25;16.50;;;;;;;;4975744;28;46455;-57
2022/01/06 01:46:20;;;;;;;;;11.75;11.75;;;;;;;;4980408;28;45500;-57
2022/01/06 01:49:11;;;;;;;;;14.75;14.00;;;;;;;;4976730;28;45478;-57
2022/01/06 01:51:34;;;;;;;;;13.50;11.75;;;;;;;;4976406;28;45337;-57
2022/01/06 01:54:00;;;;;;;;;14.75;14.00;;;;;;;;4975074;28;45512;-57
2022/01/06 01:56:25;;;;;;;;;17.50;14.25;;;;;;;;4976623;28;45336;-58
2022/01/06 01:58:50;;;;;;;;;17.75;16.50;;;;;;;;4975485;28;45450;-57
2022/01/06 02:01:15;;;;;;;;;17.75;17.75;;;;;;;;4975628;28;45611;-57
2022/01/06 02:03:41;;;;;;;;;10.00;10.00;;;;;;;;4976242;28;45398;-56
2022/01/06 02:06:06;;;;;;;;;14.25;14.25;;;;;;;;4976412;28;45622;-57
2022/01/06 02:08:31;;;;;;;;;18.00;14.75;;;;;;;;4974721;28;45469;-56
2022/01/06 02:10:57;;;;;;;;;18.00;18.00;;;;;;;;4977591;28;45666;-57
2022/01/06 02:13:28;;;;;;;;;16.75;15.25;;;;;;;;4976281;28;45405;-57
2022/01/06 02:15:53;;;;;;;;;13.25;11.00;;;;;;;;4975657;28;45320;-58
2022/01/06 02:18:18;;;;;;;;;16.00;15.00;;;;;;;;4976469;28;45320;-56
2022/01/06 02:20:44;;;;;;;;;20.00;16.50;;;;;;;;4976927;28;45274;-56
2022/01/06 02:23:09;;;;;;;;;17.25;15.00;;;;;;;;4979481;28;45455;-55
2022/01/06 02:25:34;;;;;;;;;18.00;14.25;;;;;;;;4979677;28;45463;-57
2022/01/06 02:28:04;;;;;;;;;14.75;14.75;;;;;;;;4978489;28;45315;-56
2022/01/06 02:30:32;;;;;;;;;17.00;15.00;;;;;;;;4978793;28;45456;-58
2022/01/06 02:32:58;;;;;;;;;12.75;12.75;;;;;;;;4978675;28;46029;-56
2022/01/06 02:35:24;;;;;;;;;18.50;13.75;;;;;;;;4978653;28;45574;-56
2022/01/06 02:37:49;;;;;;;;;13.50;11.50;;;;;;;;4977685;28;45262;-57
2022/01/06 02:40:20;;;;;;;;;17.00;15.00;;;;;;;;4978957;28;45679;-56
2022/01/06 02:42:48;;;;;;;;;19.00;14.50;;;;;;;;4978842;28;45328;-57
2022/01/06 02:45:13;;;;;;;;;15.75;14.25;;;;;;;;4980731;28;45309;-57
2022/01/06 02:47:39;;;;;;;;;16.75;16.75;;;;;;;;4984478;28;45395;-57
2022/01/06 02:50:05;;;;;;;;;12.75;12.75;;;;;;;;4978281;28;45492;-57
2022/01/06 02:52:30;;;;;;;;;15.50;15.50;;;;;;;;4978816;28;45348;-59
2022/01/06 02:54:55;;;;;;;;;13.00;13.00;;;;;;;;4982120;28;45423;-57
2022/01/06 02:57:20;;;;;;;;;16.00;13.50;;;;;;;;4982111;28;45278;-57
2022/01/06 02:59:46;;;;;;;;;13.75;13.75;;;;;;;;4997721;28;45650;-57
2022/01/06 03:02:11;;;;;;;;;16.25;14.00;;;;;;;;4998461;28;45349;-57
2022/01/06 03:04:36;;;;;;;;;14.00;14.00;;;;;;;;4998329;28;45308;-56
2022/01/06 03:07:02;;;;;;;;;19.00;17.75;;;;;;;;4991614;28;45386;-57
2022/01/06 03:09:37;;;;;;;;;17.00;16.75;;;;;;;;4981796;28;45653;-57
2022/01/06 03:12:05;;;;;;;;;14.25;13.75;;;;;;;;4968349;28;46024;-57
2022/01/06 03:14:32;;;;;;;;;16.75;12.75;;;;;;;;4958582;28;45472;-55
2022/01/06 03:16:57;;;;;;;;;13.25;13.25;;;;;;;;4965021;28;45396;-57
2022/01/06 03:19:22;;;;;;;;;16.00;14.00;;;;;;;;4979160;28;45340;-56
2022/01/06 03:21:47;;;;;;;;;24.75;18.25;;;;;;;;4984776;28;45499;-58
2022/01/06 03:24:13;;;;;;;;;16.25;14.75;;;;;;;;4979789;28;45408;-56
2022/01/06 03:26:38;;;;;;;;;16.00;16.00;;;;;;;;4978256;28;45341;-56
2022/01/06 03:29:03;;;;;;;;;18.50;17.00;;;;;;;;4979130;28;45337;-57
2022/01/06 03:31:28;;;;;;;;;12.50;12.50;;;;;;;;4978247;28;46058;-56
2022/01/06 03:33:53;;;;;;;;;18.50;13.75;;;;;;;;4984998;28;45225;-58
2022/01/06 03:36:18;;;;;;;;;18.00;16.75;;;;;;;;4978129;28;45556;-58
2022/01/06 03:38:44;;;;;;;;;13.25;13.25;;;;;;;;4978625;28;45367;-57
2022/01/06 03:41:09;;;;;;;;;15.75;14.75;;;;;;;;4978268;28;46274;-58
2022/01/06 03:43:34;;;;;;;;;13.00;12.50;;;;;;;;4984050;28;45203;-57
2022/01/06 03:45:59;;;;;;;;;16.50;15.75;;;;;;;;4977345;28;45276;-57
2022/01/06 03:48:25;;;;;;;;;19.00;17.00;;;;;;;;4978158;28;45422;-57
2022/01/06 03:50:50;;;;;;;;;13.25;12.25;;;;;;;;4978369;28;45314;-57
2022/01/06 03:53:15;;;;;;;;;11.00;11.00;;;;;;;;4976819;28;45307;-57
2022/01/06 03:55:41;;;;;;;;;10.75;10.75;;;;;;;;4987028;28;45328;-57
2022/01/06 03:58:09;;;;;;;;;14.75;14.75;;;;;;;;4998049;28;45328;-57
2022/01/06 04:00:35;;;;;;;;;19.75;15.00;;;;;;;;4997465;28;46133;-57
2022/01/06 04:03:00;;;;;;;;;13.50;13.00;;;;;;;;4997935;28;45313;-57
2022/01/06 04:05:25;;;;;;;;;17.00;14.25;;;;;;;;4983088;28;45316;-57
2022/01/06 04:07:51;;;;;;;;;13.75;12.25;;;;;;;;4977485;28;45481;-57
2022/01/06 04:10:16;;;;;;;;;15.25;15.00;;;;;;;;4992585;28;45348;-57
2022/01/06 04:12:41;;;;;;;;;16.00;13.25;;;;;;;;4982869;28;45241;-57
2022/01/06 04:15:10;;;;;;;;;13.00;13.00;;;;;;;;4977918;28;45288;-58
2022/01/06 04:17:35;;;;;;;;;13.25;13.25;;;;;;;;4978354;28;45471;-58
2022/01/06 04:20:00;;;;;;;;;13.00;13.00;;;;;;;;4989058;28;46112;-57
2022/01/06 04:22:25;;;;;;;;;20.50;14.75;;;;;;;;4997172;28;45352;-57
2022/01/06 04:24:51;;;;;;;;;16.00;13.50;;;;;;;;4989244;28;45512;-58
2022/01/06 04:27:16;;;;;;;;;18.25;17.00;;;;;;;;4982197;28;45551;-57
2022/01/06 04:29:41;;;;;;;;;14.75;13.25;;;;;;;;4976559;28;48481;-57
2022/01/06 04:32:06;;;;;;;;;14.00;13.50;;;;;;;;4990685;28;45449;-58
2022/01/06 04:34:33;;;;;;;;;18.75;14.00;;;;;;;;4977871;28;45524;-57
2022/01/06 04:36:59;;;;;;;;;14.25;13.75;;;;;;;;4977163;28;45470;-57
2022/01/06 04:39:25;;;;;;;;;16.50;14.00;;;;;;;;4976930;28;45342;-58
2022/01/06 04:41:50;;;;;;;;;13.00;11.25;;;;;;;;4977736;28;45350;-57
2022/01/06 04:44:15;;;;;;;;;17.50;15.25;;;;;;;;4985012;28;45309;-57
2022/01/06 04:46:41;;;;;;;;;13.50;13.50;;;;;;;;4977543;28;45559;-57
2022/01/06 04:49:06;;;;;;;;;7.00;6.00;;;;;;;;4976756;28;46269;-57
2022/01/06 04:51:31;;;;;;;;;13.25;13.25;;;;;;;;4977505;28;45346;-57
2022/01/06 04:53:57;;;;;;;;;17.25;14.00;;;;;;;;4976885;28;45888;-57
2022/01/06 04:56:22;;;;;;;;;14.25;12.75;;;;;;;;4993010;28;45370;-57
2022/01/06 04:58:48;;;;;;;;;17.25;14.75;;;;;;;;4981591;28;46015;-58
2022/01/06 05:01:14;;;;;;;;;14.50;14.50;;;;;;;;4992066;28;45318;-58
2022/01/06 05:03:39;;;;;;;;;13.75;11.50;;;;;;;;4977531;28;45333;-58
2022/01/06 05:06:04;;;;;;;;;13.75;13.75;;;;;;;;4989107;28;45266;-57
2022/01/06 05:08:30;;;;;;;;;13.75;13.75;;;;;;;;4996984;28;45358;-57
2022/01/06 05:10:55;;;;;;;;;14.00;13.00;;;;;;;;4994837;28;45263;-58
2022/01/06 05:13:20;;;;;;;;;9.25;9.00;;;;;;;;4977637;28;45225;-58
2022/01/06 05:15:45;;;;;;;;;15.00;13.00;;;;;;;;4976974;28;45526;-57
2022/01/06 05:18:10;;;;;;;;;14.25;13.25;;;;;;;;4990730;28;46281;-58
2022/01/06 05:20:38;;;;;;;;;14.00;14.00;;;;;;;;4995049;28;45498;-57
2022/01/06 05:23:03;;;;;;;;;13.25;13.25;;;;;;;;4977736;28;45392;-57
2022/01/06 05:25:30;;;;;;;;;13.00;13.00;;;;;;;;4977464;28;45528;-58
2022/01/06 05:27:56;;;;;;;;;14.25;13.75;;;;;;;;4976107;28;47419;-57
2022/01/06 05:30:22;;;;;;;;;13.50;13.25;;;;;;;;4978254;28;45406;-57
2022/01/06 05:32:47;;;;;;;;;17.25;14.00;;;;;;;;4978697;28;45364;-57
2022/01/06 05:35:13;;;;;;;;;15.25;13.25;;;;;;;;4976886;28;45567;-55
2022/01/06 05:37:38;;;;;;;;;14.75;14.75;;;;;;;;4979479;28;46211;-57
2022/01/06 05:40:04;;;;;;;;;13.50;13.50;;;;;;;;4976599;28;45278;-57
2022/01/06 05:42:29;;;;;;;;;17.25;17.25;;;;;;;;4978085;28;46228;-56
2022/01/06 05:44:54;;;;;;;;;17.50;16.25;;;;;;;;4982209;28;45500;-58
2022/01/06 05:47:20;;;;;;;;;20.75;17.00;;;;;;;;4976827;28;46273;-57
2022/01/06 05:49:45;;;;;;;;;21.00;18.00;;;;;;;;4976297;28;45358;-57
2022/01/06 05:52:10;;;;;;;;;16.25;14.25;;;;;;;;4976910;28;45231;-56
2022/01/06 05:54:35;;;;;;;;;21.75;19.25;;;;;;;;4976695;28;45305;-57
2022/01/06 05:57:01;;;;;;;;;21.50;18.00;;;;;;;;4957311;28;46141;-56
2022/01/06 05:59:28;;;;;;;;;14.75;12.50;;;;;;;;4973871;28;45578;-57
2022/01/06 06:01:54;;;;;;;;;13.25;13.25;;;;;;;;4981382;28;45384;-57
2022/01/06 06:04:19;;;;;;;;;15.25;14.75;;;;;;;;4980829;28;45644;-57
2022/01/06 06:06:44;;;;;;;;;15.25;14.75;;;;;;;;4976239;28;45563;-57
2022/01/06 06:09:09;;;;;;;;;17.00;14.00;;;;;;;;4976476;28;45491;-57
2022/01/06 06:11:34;;;;;;;;;17.00;15.25;;;;;;;;4976073;28;45522;-57
2022/01/06 06:13:59;;;;;;;;;18.75;17.75;;;;;;;;4987276;28;45462;-58
2022/01/06 06:16:25;;;;;;;;;9.75;7.50;;;;;;;;4978246;28;45390;-57
2022/01/06 06:18:50;;;;;;;;;14.00;14.00;;;;;;;;4976754;28;45349;-59
2022/01/06 06:21:16;;;;;;;;;18.50;16.75;;;;;;;;4987564;28;45430;-57
2022/01/06 06:23:42;;;;;;;;;19.00;16.00;;;;;;;;4976555;28;45401;-58
2022/01/06 06:26:07;;;;;;;;;20.25;17.50;;;;;;;;4975937;28;45533;-58
2022/01/06 06:28:32;;;;;;;;;18.75;14.00;;;;;;;;4974777;28;45407;-57
2022/01/06 06:30:58;;;;;;;;;18.00;18.00;;;;;;;;4975557;28;45455;-56
2022/01/06 06:33:23;;;;;;;;;18.50;17.50;;;;;;;;4975446;28;45489;-56
2022/01/06 06:35:48;;;;;;;;;16.50;16.50;;;;;;;;4975210;28;45535;-55
2022/01/06 06:38:13;;;;;;;;;20.25;20.25;;;;;;;;4978260;28;45206;-57
2022/01/06 06:40:39;;;;;;;;;18.25;16.50;;;;;;;;4975441;28;45186;-56
2022/01/06 06:43:04;;;;;;;;;14.00;13.00;;;;;;;;4975194;28;45264;-55
2022/01/06 06:45:29;;;;;;;;;19.25;18.00;;;;;;;;4974999;28;45283;-56
2022/01/06 06:47:54;;;;;;;;;20.75;15.75;;;;;;;;4975441;28;45479;-56
2022/01/06 06:50:21;;;;;;;;;16.75;16.75;;;;;;;;4975841;28;45530;-55
2022/01/06 06:52:46;;;;;;;;;16.75;15.00;;;;;;;;4976030;28;45254;-55
2022/01/06 06:55:12;;;;;;;;;17.50;17.50;;;;;;;;4976036;28;45280;-56
2022/01/06 06:57:38;;;;;;;;;18.50;14.25;;;;;;;;4975721;28;45412;-53
2022/01/06 07:00:05;;;;;;;;;18.00;17.50;;;;;;;;4974127;28;45465;-55
2022/01/06 07:02:30;;;;;;;;;16.25;15.00;;;;;;;;4974256;28;45626;-58
2022/01/06 07:04:56;;;;;;;;;15.75;13.75;;;;;;;;4975183;28;45352;-58
2022/01/06 07:07:21;;;;;;;;;17.75;16.25;;;;;;;;4977198;28;45337;-57
2022/01/06 07:09:46;;;;;;;;;17.00;14.75;;;;;;;;4978269;28;45321;-58
2022/01/06 07:12:11;;;;;;;;;17.50;16.25;;;;;;;;4978965;28;45381;-58
2022/01/06 07:14:37;;;;;;;;;15.50;12.25;;;;;;;;4978699;28;46270;-58
2022/01/06 07:17:02;;;;;;;;;17.50;15.00;;;;;;;;4977481;28;45344;-57
2022/01/06 07:19:27;;;;;;;;;16.25;15.25;;;;;;;;4978404;28;45396;-57
2022/01/06 07:21:52;;;;;;;;;16.75;15.25;;;;;;;;4978701;28;45591;-58
2022/01/06 07:24:18;;;;;;;;;17.25;14.75;;;;;;;;4982980;28;46113;-57
2022/01/06 07:26:43;;;;;;;;;19.25;17.00;;;;;;;;4976689;28;45568;-58
2022/01/06 07:29:09;;;;;;;;;15.00;14.00;;;;;;;;4977883;28;45594;-57
2022/01/06 07:31:34;;;;;;;;;19.00;16.50;;;;;;;;4978418;28;45477;-57
2022/01/06 07:34:00;;;;;;;;;16.50;14.00;;;;;;;;4978732;28;45518;-55
2022/01/06 07:36:25;;;;;;;;;18.50;17.75;;;;;;;;4977022;28;45259;-52
2022/01/06 07:38:51;;;;;;;;;16.75;13.50;;;;;;;;4977127;28;45483;-56
2022/01/06 07:41:16;;;;;;;;;18.75;16.75;;;;;;;;4991558;28;45214;-53
2022/01/06 07:43:41;;;;;;;;;20.50;20.50;;;;;;;;4977284;28;45909;-55
2022/01/06 07:46:07;;;;;;;;;21.25;18.00;;;;;;;;4977071;28;45493;-54
2022/01/06 07:49:06;;;;;;;;;14.75;13.00;;;;;;;;4976110;28;45365;-57
2022/01/06 07:51:24;;;;;;;;;17.75;17.00;;;;;;;;4975721;28;45417;-55
2022/01/06 07:53:50;;;;;;;;;17.75;17.00;;;;;;;;4977437;28;45334;-56
2022/01/06 07:56:15;;;;;;;;;18.25;16.25;;;;;;;;4977210;28;45390;-52
2022/01/06 07:58:40;;;;;;;;;21.50;15.50;;;;;;;;4978503;28;45234;-57
2022/01/06 08:01:06;;;;;;;;;17.75;16.00;;;;;;;;4977918;28;45160;-56
2022/01/06 08:03:31;;;;;;;;;17.75;17.75;;;;;;;;4978174;28;45215;-53
2022/01/06 08:05:56;;;;;;;;;20.75;19.00;;;;;;;;4978280;28;45326;-56
2022/01/06 08:08:21;;;;;;;;;18.00;15.00;;;;;;;;4978216;28;45215;-57
2022/01/06 08:10:46;;;;;;;;;20.50;17.50;;;;;;;;4978223;28;45392;-53
2022/01/06 08:13:12;;;;;;;;;16.75;16.75;;;;;;;;4977526;28;45282;-52
2022/01/06 08:15:37;;;;;;;;;16.25;16.25;;;;;;;;4978315;28;45207;-57
2022/01/06 08:18:02;;;;;;;;;22.00;18.75;;;;;;;;4976828;28;45338;-54
2022/01/06 08:20:27;;;;;;;;;19.25;17.50;;;;;;;;4977989;28;45218;-55
2022/01/06 08:22:52;;;;;;;;;18.00;18.00;;;;;;;;4977257;28;45322;-54
2022/01/06 08:25:18;;;;;;;;;20.75;19.25;;;;;;;;4977726;28;45242;-54
2022/01/06 08:27:43;;;;;;;;;25.00;18.00;;;;;;;;4977988;28;45251;-55
2022/01/06 08:30:08;;;;;;;;;19.75;19.75;;;;;;;;4976659;28;45660;-56
2022/01/06 08:32:34;;;;;;;;;21.25;18.50;;;;;;;;4977778;28;45360;-53
2022/01/06 08:34:59;;;;;;;;;22.00;19.25;;;;;;;;4976922;28;45325;-54
2022/01/06 08:37:24;;;;;;;;;28.50;25.50;;;;;;;;4977979;28;45295;-51
2022/01/06 08:39:50;;;;;;;;;22.00;20.25;;;;;;;;4977654;28;45307;-56
2022/01/06 08:42:15;;;;;;;;;23.75;20.50;;;;;;;;4977541;28;46379;-55
2022/01/06 08:44:41;;;;;;;;;19.75;19.75;;;;;;;;4977257;28;45301;-54
2022/01/06 08:47:07;;;;;;;;;24.00;19.50;;;;;;;;4977861;28;45428;-55
2022/01/06 08:49:33;;;;;;;;;25.00;19.75;;;;;;;;4977861;28;45543;-53
2022/01/06 08:51:58;;;;;;;;;21.25;20.50;;;;;;;;4977674;28;46230;-57
2022/01/06 08:54:23;;;;;;;;;24.25;24.25;;;;;;;;4977625;28;45373;-56
2022/01/06 08:56:48;;;;;;;;;22.75;20.50;;;;;;;;4977224;28;45377;-56
2022/01/06 08:59:13;;;;;;;;;32.00;25.25;;;;;;;;4977462;28;45543;-56
2022/01/06 09:01:39;;;;;;;;;30.50;23.75;;;;;;;;4977468;28;46207;-55
2022/01/06 09:04:04;;;;;;;;;39.75;30.25;;;;;;;;4977423;28;45238;-57
2022/01/06 09:06:29;;;;;;;;;17.75;15.00;;;;;;;;4977144;28;45370;-58
2022/01/06 09:08:54;;;;;;;;;28.00;21.25;;;;;;;;4977399;28;45188;-56
2022/01/06 09:11:20;;;;;;;;;32.75;26.75;;;;;;;;4977372;28;45167;-56
2022/01/06 09:13:45;;;;;;;;;23.25;21.25;;;;;;;;4977161;28;45277;-58
2022/01/06 09:16:11;;;;;;;;;24.75;24.75;;;;;;;;4976159;28;45227;-57
2022/01/06 09:18:36;;;;;;;;;23.25;23.25;;;;;;;;4976863;28;45288;-52
2022/01/06 09:21:01;;;;;;;;;29.50;24.50;;;;;;;;4976792;28;45370;-57
2022/01/06 09:23:26;;;;;;;;;26.50;23.75;;;;;;;;4977151;28;45353;-57
2022/01/06 09:25:52;;;;;;;;;27.00;24.25;;;;;;;;4977269;28;45273;-55
2022/01/06 09:28:17;;;;;;;;;26.00;22.75;;;;;;;;4976789;28;45283;-53
2022/01/06 09:30:42;;;;;;;;;22.75;21.25;;;;;;;;4976257;28;45307;-56
2022/01/06 09:33:07;;;;;;;;;24.50;22.50;;;;;;;;4977022;28;45329;-55
2022/01/06 09:35:32;;;;;;;;;23.50;22.25;;;;;;;;4976790;28;45393;-55
2022/01/06 09:37:58;;;;;;;;;23.25;22.50;;;;;;;;4976961;28;45596;-55
2022/01/06 09:40:23;;;;;;;;;25.75;22.75;;;;;;;;4976122;28;45349;-55
2022/01/06 09:42:48;;;;;;;;;22.75;19.25;;;;;;;;4976484;28;45299;-57
2022/01/06 09:45:15;;;;;;;;;16.75;16.75;;;;;;;;4976929;28;45378;-60
2022/01/06 09:47:41;;;;;;;;;20.50;18.00;;;;;;;;4975411;28;45516;-58
2022/01/06 09:50:07;;;;;;;;;22.75;19.50;;;;;;;;4976324;28;46083;-54
2022/01/06 09:52:34;;;;;;;;;18.00;15.00;;;;;;;;4974960;28;45449;-57
2022/01/06 09:54:59;;;;;;;;;15.00;15.00;;;;;;;;4976787;28;45239;-57
2022/01/06 09:57:24;;;;;;;;;15.25;14.75;;;;;;;;4975394;28;45484;-56
2022/01/06 09:59:50;;;;;;;;;23.75;19.00;;;;;;;;4976552;28;45219;-55
2022/01/06 10:02:16;;;;;;;;;27.75;25.25;;;;;;;;4975877;28;45277;-56
2022/01/06 10:04:45;;;;;;;;;13.75;13.75;;;;;;;;4976474;28;45387;-55
2022/01/06 10:07:10;;;;;;;;;22.00;16.75;;;;;;;;4976121;28;45356;-56
2022/01/06 10:09:37;;;;;;;;;24.25;15.75;;;;;;;;4976015;28;46100;-55
2022/01/06 10:12:06;;;;;;;;;15.00;12.75;;;;;;;;4976480;28;45373;-57
2022/01/06 10:14:44;;;;;;;;;18.00;14.00;;;;;;;;4976312;28;45243;-57
2022/01/06 10:17:10;;;;;;;;;20.25;17.75;;;;;;;;4976264;28;45373;-56
2022/01/06 10:19:40;;;;;;;;;17.75;16.50;;;;;;;;4976207;28;46271;-55
2022/01/06 10:22:11;;;;;;;;;18.25;15.50;;;;;;;;4976157;28;45308;-54
2022/01/06 10:24:36;;;;;;;;;22.75;18.00;;;;;;;;4975952;28;45419;-55
2022/01/06 10:27:04;;;;;;;;;19.00;16.00;;;;;;;;4974843;28;45391;-57
2022/01/06 10:29:34;;;;;;;;;19.75;19.50;;;;;;;;4976156;28;46166;-57
2022/01/06 10:32:06;;;;;;;;;23.25;19.75;;;;;;;;4976344;28;45427;-56
2022/01/06 10:34:33;;;;;;;;;17.25;16.00;;;;;;;;4975525;28;45260;-54
2022/01/06 10:36:58;;;;;;;;;17.50;15.50;;;;;;;;4975797;28;45271;-55
2022/01/06 10:39:23;;;;;;;;;16.00;15.00;;;;;;;;4976047;28;46018;-52
2022/01/06 10:41:51;;;;;;;;;24.00;20.50;;;;;;;;4977600;28;45259;-52
2022/01/06 10:44:16;;;;;;;;;15.25;11.75;;;;;;;;4979492;28;45322;-56
2022/01/06 10:46:42;;;;;;;;;11.25;11.25;;;;;;;;4978963;28;45351;-55
2022/01/06 10:49:09;;;;;;;;;15.50;10.00;;;;;;;;4979294;28;45483;-56
2022/01/06 10:51:35;;;;;;;;;14.50;12.25;;;;;;;;4979126;28;45409;-58
2022/01/06 10:54:00;;;;;;;;;16.00;12.25;;;;;;;;4979368;28;45341;-55
2022/01/06 10:56:27;;;;;;;;;16.00;12.25;;;;;;;;4978943;28;45598;-56
2022/01/06 10:58:55;;;;;;;;;14.75;13.00;;;;;;;;4979249;28;45384;-55
2022/01/06 11:01:20;;;;;;;;;15.75;12.75;;;;;;;;4978890;28;45453;-57
2022/01/06 11:03:45;;;;;;;;;11.75;11.75;;;;;;;;4979134;28;45376;-57
2022/01/06 11:06:10;;;;;;;;;11.00;10.50;;;;;;;;4979168;28;45507;-55
2022/01/06 11:08:41;;;;;;;;;14.75;14.00;;;;;;;;4978234;28;46034;-55
2022/01/06 11:13:49;;;;;;;;;7.25;7.25;;;;;;;;4979270;28;45309;-56
2022/01/06 11:16:17;;;;;;;;;10.50;9.50;;;;;;;;4979224;28;45322;-56
2022/01/06 11:18:48;;;;;;;;;7.00;7.00;;;;;;;;4978396;28;45258;-53
2022/01/06 11:21:14;;;;;;;;;10.50;10.25;;;;;;;;4978715;28;45976;-56
2022/01/06 11:23:40;;;;;;;;;9.25;8.75;;;;;;;;4979212;28;45455;-54
2022/01/06 11:26:11;;;;;;;;;10.50;9.50;;;;;;;;4978919;28;45210;-55
2022/01/06 11:28:37;;;;;;;;;9.50;9.25;;;;;;;;4978900;28;46060;-58
2022/01/06 11:31:16;;;;;;;;;11.50;11.50;;;;;;;;4979279;28;45264;-53
2022/01/06 11:33:42;;;;;;;;;11.25;11.25;;;;;;;;4979853;28;45499;-53
2022/01/06 11:36:37;;;;;;;;;13.25;10.75;;;;;;;;4992035;28;45470;-51
2022/01/06 11:39:05;;;;;;;;;10.75;10.50;;;;;;;;4965298;28;46075;-52
2022/01/06 11:41:32;;;;;;;;;11.75;11.00;;;;;;;;4990678;28;45490;-53
2022/01/06 11:43:58;;;;;;;;;11.50;11.00;;;;;;;;4998315;28;45449;-51
2022/01/06 11:46:23;;;;;;;;;36.75;31.75;;;;;;;;4998295;28;45349;-56
2022/01/06 11:48:49;;;;;;;;;6.75;6.75;;;;;;;;4998150;28;45428;-53
2022/01/06 11:51:24;;;;;;;;;8.00;8.00;;;;;;;;4997771;28;45262;-49
2022/01/06 11:53:49;;;;;;;;;10.25;10.00;;;;;;;;4997709;28;45234;-56
2022/01/06 11:56:14;;;;;;;;;11.25;10.50;;;;;;;;4998172;28;45484;-54
2022/01/06 11:58:40;;;;;;;;;10.00;10.00;;;;;;;;4998152;28;46031;-54
2022/01/06 12:01:07;;;;;;;;;8.25;8.25;;;;;;;;4998011;28;45306;-52
2022/01/06 12:03:34;;;;;;;;;8.00;8.00;;;;;;;;4997379;28;45366;-56
2022/01/06 12:05:59;;;;;;;;;8.75;8.75;;;;;;;;4996528;28;45601;-54
2022/01/06 12:08:35;;;;;;;;;8.25;6.50;;;;;;;;4996453;28;46224;-53
2022/01/06 12:11:00;;;;;;;;;6.25;6.25;;;;;;;;4998165;28;45447;-55
2022/01/06 12:13:25;;;;;;;;;6.75;6.00;;;;;;;;4997515;28;45671;-51
2022/01/06 12:15:52;;;;;;;;;8.50;6.50;;;;;;;;4996909;28;45365;-53
2022/01/06 12:18:21;;;;;;;;;7.00;3.00;;;;;;;;4998046;28;45400;-54
2022/01/06 12:20:48;;;;;;;;;6.25;6.00;;;;;;;;4997765;28;45456;-51
2022/01/06 12:23:13;;;;;;;;;8.00;5.50;;;;;;;;4997689;28;45298;-51
2022/01/06 12:25:39;;;;;;;;;5.00;5.00;;;;;;;;4997281;28;45538;-52
2022/01/06 12:28:08;;;;;;;;;3.00;2.50;;;;;;;;4997427;28;46280;-52
2022/01/06 12:30:35;;;;;;;;;3.50;3.00;;;;;;;;4997445;28;45429;-53
2022/01/06 12:33:06;;;;;;;;;2.75;2.25;;;;;;;;4997637;28;45301;-52
2022/01/06 12:35:36;;;;;;;;;3.00;3.00;;;;;;;;4997083;28;45266;-54
2022/01/06 12:38:01;;;;;;;;;3.00;3.00;;;;;;;;4995742;28;47099;-52
2022/01/06 12:40:33;;;;;;;;;4.75;4.75;;;;;;;;4997611;28;45373;-54
2022/01/06 12:42:59;;;;;;;;;6.00;5.50;;;;;;;;4997640;28;45375;-56
2022/01/06 12:45:24;;;;;;;;;6.75;5.50;;;;;;;;4996174;28;45342;-52
2022/01/06 12:47:49;;;;;;;;;6.00;5.25;;;;;;;;4996622;28;46218;-52
2022/01/06 12:50:15;;;;;;;;;7.50;7.50;;;;;;;;4997203;28;45300;-53
2022/01/06 12:52:47;;;;;;;;;9.50;7.75;;;;;;;;4997328;28;45344;-54
2022/01/06 12:55:12;;;;;;;;;6.00;6.00;;;;;;;;4995331;28;45447;-55
2022/01/06 12:57:38;;;;;;;;;5.50;5.50;;;;;;;;4975554;28;45470;-53
2022/01/06 13:00:09;;;;;;;;;4.25;4.25;;;;;;;;4976468;28;45510;-54
2022/01/06 13:02:34;;;;;;;;;7.25;5.00;;;;;;;;4975943;28;45482;-53
2022/01/06 13:05:02;;;;;;;;;7.75;6.00;;;;;;;;4975850;28;45403;-54
2022/01/06 13:07:28;;;;;;;;;7.75;6.75;;;;;;;;4973539;28;46936;-54
2022/01/06 13:09:59;;;;;;;;;6.25;5.50;;;;;;;;4976297;28;45408;-52
2022/01/06 13:12:26;;;;;;;;;5.75;5.75;;;;;;;;4976768;28;45437;-52
2022/01/06 13:14:52;;;;;;;;;9.50;9.25;;;;;;;;4977508;28;45579;-52
2022/01/06 13:17:17;;;;;;;;;5.25;5.25;;;;;;;;4977342;28;45401;-55
2022/01/06 13:19:54;;;;;;;;;6.25;6.25;;;;;;;;4976670;28;45399;-52
2022/01/06 13:25:20;;;;;;;;;5.50;3.00;;;;;;;;4977439;28;45484;-56
2022/01/06 13:27:57;;;;;;;;;5.50;5.50;;;;;;;;4974993;28;45960;-51
2022/01/06 13:30:33;;;;;;;;;5.00;5.00;;;;;;;;4975857;28;45265;-49
2022/01/06 13:32:59;;;;;;;;;14.75;13.00;;;;;;;;4976916;28;45329;-54
2022/01/06 13:35:24;;;;;;;;;6.00;6.00;;;;;;;;4975947;28;45282;-55
2022/01/06 13:37:49;;;;;;;;;14.75;13.00;;;;;;;;4976712;28;45258;-54
2022/01/06 13:40:15;;;;;;;;;6.25;4.00;;;;;;;;4977197;28;45346;-55
2022/01/06 13:42:42;;;;;;;;;6.50;5.50;;;;;;;;4976658;28;45425;-56
2022/01/06 13:45:15;;;;;;;;;9.75;7.50;;;;;;;;4976733;28;45257;-53
2022/01/06 13:47:49;;;;;;;;;2.00;2.00;;;;;;;;4975032;28;45741;-56
2022/01/06 13:52:59;;;;;;;;;6.00;5.75;;;;;;;;4976521;28;45234;-53
2022/01/06 13:55:25;;;;;;;;;7.00;7.00;;;;;;;;4977057;28;45333;-55
2022/01/06 13:57:50;;;;;;;;;9.00;5.00;;;;;;;;4976541;28;45344;-56
2022/01/06 14:00:16;;;;;;;;;4.25;4.25;;;;;;;;4976658;28;45467;-56
2022/01/06 14:02:42;;;;;;;;;10.00;7.00;;;;;;;;4976686;28;45441;-55
2022/01/06 14:05:07;;;;;;;;;10.75;7.00;;;;;;;;4976021;28;45329;-53
2022/01/06 14:07:33;;;;;;;;;9.75;6.00;;;;;;;;4976561;28;46294;-56
2022/01/06 14:09:58;;;;;;;;;6.50;6.00;;;;;;;;4976839;28;45903;-57
2022/01/06 14:12:23;;;;;;;;;6.00;6.00;;;;;;;;4976421;28;45257;-54
2022/01/06 14:14:48;;;;;;;;;7.00;7.00;;;;;;;;4976256;28;45357;-54
2022/01/06 14:17:14;;;;;;;;;5.00;2.50;;;;;;;;4980006;28;45926;-59
2022/01/06 14:19:40;;;;;;;;;7.00;5.00;;;;;;;;4980071;28;45323;-53
2022/01/06 14:22:05;;;;;;;;;3.00;3.00;;;;;;;;4979840;28;45455;-58
2022/01/06 14:24:32;;;;;;;;;7.25;6.25;;;;;;;;4979740;28;45301;-56
2022/01/06 14:26:57;;;;;;;;;10.25;6.50;;;;;;;;4979212;28;45345;-55
2022/01/06 14:29:23;;;;;;;;;6.00;6.00;;;;;;;;4979633;28;45282;-51
2022/01/06 14:31:48;;;;;;;;;5.00;5.00;;;;;;;;4979575;28;45322;-53